createdAt,value
2019-01-23T00:00:44.245Z,75.10
2019-01-23T00:03:05.507Z,75.00
2019-01-23T00:05:26.754Z,75.30
2019-01-23T00:07:47.956Z,75.20
2019-01-23T00:10:09.156Z,75.40
2019-01-23T00:12:30.338Z,75.10
2019-01-23T00:14:51.552Z,74.90
2019-01-23T00:17:12.732Z,74.70
2019-01-23T00:19:33.941Z,74.60
2019-01-23T00:21:55.120Z,75.00
2019-01-23T00:24:16.342Z,74.80
2019-01-23T00:26:37.535Z,75.00
2019-01-23T00:28:58.745Z,75.20
2019-01-23T00:31:19.957Z,75.50
2019-01-23T00:33:41.170Z,75.00
2019-01-23T00:36:02.674Z,75.40
2019-01-23T00:38:23.870Z,75.30
2019-01-23T00:40:45.069Z,75.20
2019-01-23T00:43:06.249Z,75.40
2019-01-23T00:45:27.504Z,75.50
2019-01-23T00:47:48.753Z,75.70
2019-01-23T00:50:12.661Z,76.10
2019-01-23T00:52:33.848Z,75.10
2019-01-23T00:54:55.162Z,74.80
2019-01-23T00:57:16.353Z,74.70
2019-01-23T00:59:37.551Z,74.90
2019-01-23T01:01:58.741Z,74.90
2019-01-23T01:04:19.963Z,74.70
2019-01-23T01:06:41.165Z,74.80
2019-01-23T01:09:05.879Z,74.60
2019-01-23T01:11:27.048Z,74.20
2019-01-23T01:13:48.242Z,74.00
2019-01-23T01:16:09.440Z,73.70
2019-01-23T01:18:30.620Z,73.50
2019-01-23T01:20:51.837Z,73.40
2019-01-23T01:23:13.012Z,73.30
2019-01-23T01:25:34.226Z,73.20
2019-01-23T01:27:55.433Z,73.20
2019-01-23T01:30:19.321Z,73.20
2019-01-23T01:32:40.507Z,73.20
2019-01-23T01:35:01.710Z,72.90
2019-01-23T01:37:22.921Z,73.00
2019-01-23T01:39:44.129Z,73.10
2019-01-23T01:42:05.326Z,73.20
2019-01-23T01:44:26.513Z,73.00
2019-01-23T01:46:47.711Z,73.10
2019-01-23T01:49:08.909Z,73.30
2019-01-23T01:51:30.113Z,73.10
2019-01-23T01:53:51.385Z,73.20
2019-01-23T01:56:12.585Z,73.20
2019-01-23T01:58:33.776Z,73.20
2019-01-23T02:00:55.046Z,73.30
2019-01-23T02:03:16.313Z,73.50
2019-01-23T02:05:37.516Z,73.70
2019-01-23T02:07:58.715Z,73.70
2019-01-23T02:10:19.920Z,73.80
2019-01-23T02:12:41.113Z,73.80
2019-01-23T02:15:04.230Z,73.90
2019-01-23T02:17:25.434Z,74.20
2019-01-23T02:19:46.641Z,74.40
2019-01-23T02:22:07.850Z,74.40
2019-01-23T02:24:29.041Z,74.50
2019-01-23T02:26:50.243Z,75.10
2019-01-23T02:29:11.434Z,74.60
2019-01-23T02:31:32.703Z,74.80
2019-01-23T02:33:53.886Z,74.70
2019-01-23T02:36:15.097Z,75.00
2019-01-23T02:38:36.282Z,76.00
2019-01-23T02:40:57.488Z,75.20
2019-01-23T02:43:18.665Z,75.20
2019-01-23T02:45:39.889Z,75.10
2019-01-23T02:48:02.187Z,74.90
2019-01-23T02:50:23.383Z,74.80
2019-01-23T02:52:44.592Z,74.50
2019-01-23T02:55:08.091Z,75.00
2019-01-23T02:57:29.303Z,74.40
2019-01-23T02:59:50.570Z,74.60
2019-01-23T03:02:12.770Z,74.70
2019-01-23T03:04:33.997Z,74.80
2019-01-23T03:06:55.202Z,74.80
2019-01-23T03:09:16.391Z,75.10
2019-01-23T03:11:37.593Z,75.00
2019-01-23T03:14:11.765Z,75.00
2019-01-23T03:16:32.983Z,74.60
2019-01-23T03:18:54.173Z,75.20
2019-01-23T03:21:15.387Z,75.20
2019-01-23T03:23:36.872Z,75.40
2019-01-23T03:25:58.247Z,75.20
2019-01-23T03:28:19.442Z,75.00
2019-01-23T03:30:40.628Z,75.00
2019-01-23T03:33:01.830Z,75.20
2019-01-23T03:35:23.364Z,75.10
2019-01-23T03:37:44.565Z,75.10
2019-01-23T03:40:09.245Z,75.30
2019-01-23T03:42:30.781Z,75.50
2019-01-23T03:44:51.974Z,75.80
2019-01-23T03:47:13.167Z,75.90
2019-01-23T03:49:34.367Z,76.00
2019-01-23T03:51:55.577Z,76.00
2019-01-23T03:54:16.760Z,76.20
2019-01-23T03:56:37.955Z,76.40
2019-01-23T03:58:59.146Z,76.30
2019-01-23T04:01:20.356Z,76.50
2019-01-23T04:03:41.568Z,76.60
2019-01-23T04:06:02.757Z,76.80
2019-01-23T04:08:23.958Z,77.10
2019-01-23T04:10:45.141Z,77.10
2019-01-23T04:13:06.357Z,77.40
2019-01-23T04:15:27.580Z,77.60
2019-01-23T04:17:48.783Z,77.80
2019-01-23T04:20:12.168Z,77.80
2019-01-23T04:22:33.376Z,78.10
2019-01-23T04:24:54.651Z,77.90
2019-01-23T04:27:15.840Z,78.00
2019-01-23T04:29:39.793Z,78.40
2019-01-23T04:32:00.154Z,78.40
2019-01-23T04:34:21.340Z,78.20
2019-01-23T04:36:42.520Z,78.40
2019-01-23T04:39:05.866Z,78.50
2019-01-23T04:41:27.049Z,78.70
2019-01-23T04:43:48.257Z,78.90
2019-01-23T04:46:09.465Z,79.00
2019-01-23T04:48:30.676Z,78.90
2019-01-23T04:51:13.633Z,79.00
2019-01-23T04:53:36.753Z,78.80
2019-01-23T04:55:57.938Z,79.20
2019-01-23T04:58:19.140Z,79.90
2019-01-23T05:00:40.554Z,79.40
2019-01-23T05:03:01.762Z,79.50
2019-01-23T05:05:22.960Z,79.30
2019-01-23T05:07:44.211Z,79.30
2019-01-23T05:10:05.703Z,79.20
2019-01-23T05:12:26.916Z,79.00
2019-01-23T05:14:48.132Z,79.00
2019-01-23T05:17:09.370Z,79.00
2019-01-23T05:19:30.635Z,79.00
2019-01-23T05:21:51.831Z,78.90
2019-01-23T05:24:13.044Z,78.50
2019-01-23T05:26:34.779Z,78.60
2019-01-23T05:28:56.184Z,79.00
2019-01-23T05:31:17.378Z,79.00
2019-01-23T05:33:38.555Z,78.90
2019-01-23T05:35:59.744Z,78.70
2019-01-23T05:38:20.970Z,78.80
2019-01-23T05:40:42.172Z,79.00
2019-01-23T05:43:03.369Z,79.00
2019-01-23T05:45:24.548Z,79.20
2019-01-23T05:47:45.771Z,79.30
2019-01-23T05:50:10.835Z,79.20
2019-01-23T05:52:32.042Z,79.30
2019-01-23T05:54:53.541Z,80.10
2019-01-23T05:57:34.598Z,80.30
2019-01-23T06:00:02.068Z,79.40
2019-01-23T06:02:18.903Z,79.60
2019-01-23T06:04:40.113Z,79.60
2019-01-23T06:07:01.314Z,79.80
2019-01-23T06:09:22.883Z,79.70
2019-01-23T06:11:44.321Z,79.70
2019-01-23T06:14:05.532Z,80.00
2019-01-23T06:16:26.745Z,80.00
2019-01-23T06:18:47.965Z,80.30
2019-01-23T06:21:09.201Z,79.80
2019-01-23T06:23:30.479Z,79.80
2019-01-23T06:25:51.713Z,80.10
2019-01-23T06:28:12.997Z,80.10
2019-01-23T06:30:34.224Z,80.00
2019-01-23T06:32:55.757Z,79.90
2019-01-23T06:35:17.360Z,79.60
2019-01-23T06:37:38.674Z,80.00
2019-01-23T06:39:59.985Z,79.60
2019-01-23T06:42:21.294Z,79.30
2019-01-23T06:44:42.616Z,79.20
2019-01-23T06:47:03.937Z,79.00
2019-01-23T06:49:25.273Z,79.10
2019-01-23T06:51:46.588Z,79.00
2019-01-23T06:54:07.859Z,78.60
2019-01-23T06:56:29.172Z,78.10
2019-01-23T06:58:50.461Z,78.00
2019-01-23T07:01:12.759Z,78.00
2019-01-23T07:03:34.361Z,77.60
2019-01-23T07:06:15.438Z,77.70
2019-01-23T07:08:36.669Z,77.80
2019-01-23T07:10:57.958Z,77.80
2019-01-23T07:13:19.162Z,77.60
2019-01-23T07:15:40.853Z,77.70
2019-01-23T07:18:02.198Z,77.50
2019-01-23T07:20:24.511Z,77.50
2019-01-23T07:22:45.717Z,77.60
2019-01-23T07:25:08.422Z,77.30
2019-01-23T07:27:29.652Z,77.30
2019-01-23T07:29:50.848Z,78.20
2019-01-23T07:32:12.211Z,77.10
2019-01-23T07:34:33.421Z,76.80
2019-01-23T07:36:54.635Z,76.50
2019-01-23T07:39:16.164Z,76.40
2019-01-23T07:41:37.655Z,75.70
2019-01-23T07:43:58.860Z,75.60
2019-01-23T07:46:20.721Z,74.90
2019-01-23T07:48:41.919Z,75.00
2019-01-23T07:51:03.251Z,74.30
2019-01-23T07:53:24.736Z,74.20
2019-01-23T07:55:59.539Z,74.00
2019-01-23T07:58:20.728Z,73.30
2019-01-23T08:00:42.227Z,73.30
2019-01-23T08:03:03.748Z,73.10
2019-01-23T08:05:25.250Z,73.00
2019-01-23T08:07:46.455Z,73.50
2019-01-23T08:10:11.185Z,72.20
2019-01-23T08:12:32.417Z,72.90
2019-01-23T08:14:53.628Z,72.40
2019-01-23T08:17:15.327Z,72.00
2019-01-23T08:19:36.623Z,71.40
2019-01-23T08:21:57.833Z,72.10
2019-01-23T08:24:19.217Z,71.00
2019-01-23T08:26:40.416Z,70.70
2019-01-23T08:29:01.609Z,70.50
2019-01-23T08:31:22.822Z,70.40
2019-01-23T08:33:44.150Z,70.60
2019-01-23T08:36:05.372Z,70.00
2019-01-23T08:38:26.565Z,70.30
2019-01-23T08:40:47.762Z,69.50
2019-01-23T08:43:08.997Z,68.90
2019-01-23T08:45:30.271Z,67.90
2019-01-23T08:47:51.553Z,67.30
2019-01-23T08:50:19.474Z,67.30
2019-01-23T08:52:40.777Z,66.70
2019-01-23T08:55:03.149Z,66.50
2019-01-23T08:57:24.372Z,66.70
2019-01-23T08:59:45.556Z,65.90
2019-01-23T09:02:06.800Z,65.90
2019-01-23T09:04:28.041Z,65.80
2019-01-23T09:06:49.301Z,65.10
2019-01-23T09:09:10.557Z,64.80
2019-01-23T09:11:31.818Z,64.70
2019-01-23T09:13:53.174Z,64.30
2019-01-23T09:16:22.774Z,64.60
2019-01-23T09:18:43.984Z,64.20
2019-01-23T09:21:05.211Z,64.50
2019-01-23T09:23:26.542Z,63.60
2019-01-23T09:25:50.028Z,63.70
2019-01-23T09:28:10.933Z,64.30
2019-01-23T09:30:38.537Z,64.20
2019-01-23T09:33:27.322Z,64.50
2019-01-23T09:36:21.809Z,64.10
2019-01-23T09:39:07.540Z,62.80
2019-01-23T09:41:54.828Z,63.50
2019-01-23T09:44:29.062Z,62.60
2019-01-23T09:47:16.644Z,62.30
2019-01-23T09:49:41.786Z,62.80
2019-01-23T09:52:10.078Z,62.30
2019-01-23T09:54:31.259Z,62.50
2019-01-23T09:56:52.448Z,62.30
2019-01-23T09:59:13.861Z,62.20
2019-01-23T10:01:35.099Z,62.40
2019-01-23T10:03:56.300Z,63.00
2019-01-23T10:06:17.504Z,62.60
2019-01-23T10:08:39.021Z,61.80
2019-01-23T10:11:00.215Z,61.70
2019-01-23T10:13:21.793Z,61.80
2019-01-23T10:15:45.493Z,61.40
2019-01-23T10:18:06.704Z,61.50
2019-01-23T10:20:27.885Z,61.00
2019-01-23T10:22:49.099Z,61.00
2019-01-23T10:25:10.307Z,61.10
2019-01-23T10:27:31.537Z,61.00
2019-01-23T10:29:53.740Z,60.40
2019-01-23T10:32:14.950Z,59.90
2019-01-23T10:34:36.157Z,60.70
2019-01-23T10:36:57.381Z,60.30
2019-01-23T10:39:18.585Z,60.30
2019-01-23T10:41:39.764Z,60.10
2019-01-23T10:44:00.996Z,59.60
2019-01-23T10:46:22.339Z,58.80
2019-01-23T10:48:43.557Z,59.00
2019-01-23T10:51:04.742Z,59.20
2019-01-23T10:53:25.978Z,59.00
2019-01-23T10:55:47.152Z,59.10
2019-01-23T10:58:08.365Z,58.90
2019-01-23T11:00:29.888Z,58.70
2019-01-23T11:02:51.164Z,58.60
2019-01-23T11:05:18.185Z,58.70
2019-01-23T11:07:39.368Z,58.30
2019-01-23T11:10:00.723Z,58.00
2019-01-23T11:12:21.996Z,58.30
2019-01-23T11:14:43.188Z,57.90
2019-01-23T11:17:04.393Z,57.90
2019-01-23T11:19:25.657Z,58.00
2019-01-23T11:21:46.865Z,58.00
2019-01-23T11:24:08.081Z,58.00
2019-01-23T11:26:29.589Z,57.90
2019-01-23T11:28:50.836Z,57.50
2019-01-23T11:31:12.297Z,57.80
2019-01-23T11:33:33.477Z,58.10
2019-01-23T11:35:54.680Z,57.00
2019-01-23T11:38:15.885Z,57.20
2019-01-23T11:40:37.085Z,57.30
2019-01-23T11:42:58.262Z,57.20
2019-01-23T11:45:21.024Z,57.20
2019-01-23T11:47:44.530Z,56.90
2019-01-23T11:50:28.130Z,56.80
2019-01-23T11:52:49.405Z,57.20
2019-01-23T11:55:10.716Z,57.20
2019-01-23T11:57:32.132Z,56.80
2019-01-23T11:59:53.496Z,57.20
2019-01-23T12:02:14.689Z,56.90
2019-01-23T12:04:35.905Z,56.50
2019-01-23T12:06:57.122Z,56.40
2019-01-23T12:09:20.182Z,56.10
2019-01-23T12:11:41.583Z,56.00
2019-01-23T12:14:03.199Z,56.20
2019-01-23T12:16:24.533Z,56.70
2019-01-23T12:18:45.737Z,56.60
2019-01-23T12:21:06.935Z,56.60
2019-01-23T12:23:28.130Z,57.00
2019-01-23T12:25:49.331Z,57.20
2019-01-23T12:28:10.525Z,57.10
2019-01-23T12:30:32.828Z,56.80
2019-01-23T12:32:54.291Z,56.90
2019-01-23T12:35:15.517Z,57.10
2019-01-23T12:37:36.912Z,57.10
2019-01-23T12:39:59.137Z,57.30
2019-01-23T12:42:20.350Z,57.10
2019-01-23T12:44:41.553Z,57.00
2019-01-23T12:47:02.794Z,57.10
2019-01-23T12:49:23.993Z,56.90
2019-01-23T12:51:45.184Z,57.20
2019-01-23T12:54:06.373Z,57.30
2019-01-23T12:56:28.687Z,57.30
2019-01-23T12:58:49.870Z,57.40
2019-01-23T13:01:11.302Z,57.00
2019-01-23T13:03:32.490Z,58.00
2019-01-23T13:05:54.005Z,57.10
2019-01-23T13:08:15.238Z,57.10
2019-01-23T13:10:36.611Z,56.70
2019-01-23T13:12:57.841Z,56.90
2019-01-23T13:15:21.415Z,56.70
2019-01-23T13:17:42.629Z,56.80
2019-01-23T13:20:07.465Z,56.90
2019-01-23T13:22:28.671Z,56.70
2019-01-23T13:24:49.927Z,57.00
2019-01-23T13:27:11.123Z,57.80
2019-01-23T13:29:32.312Z,58.80
2019-01-23T13:31:53.536Z,59.30
2019-01-23T13:34:14.721Z,59.90
2019-01-23T13:36:36.229Z,60.80
2019-01-23T13:38:57.422Z,60.50
2019-01-23T13:41:18.632Z,60.80
2019-01-23T13:43:39.813Z,60.10
2019-01-23T13:46:01.181Z,60.40
2019-01-23T13:48:26.834Z,61.00
2019-01-23T13:50:48.605Z,61.20
2019-01-23T13:53:09.932Z,61.80
2019-01-23T13:55:31.224Z,61.80
2019-01-23T13:57:52.454Z,61.80
2019-01-23T14:00:22.872Z,62.60
2019-01-23T14:02:44.072Z,62.80
2019-01-23T14:05:07.473Z,62.70
2019-01-23T14:07:28.664Z,62.20
2019-01-23T14:09:50.051Z,62.40
2019-01-23T14:12:11.329Z,63.00
2019-01-23T14:14:32.514Z,63.50
2019-01-23T14:16:53.998Z,63.50
2019-01-23T14:19:15.272Z,64.10
2019-01-23T14:21:36.567Z,63.90
2019-01-23T14:23:57.962Z,64.20
2019-01-23T14:26:19.197Z,63.70
2019-01-23T14:28:40.400Z,63.50
2019-01-23T14:31:01.825Z,63.40
2019-01-23T14:33:23.029Z,63.70
2019-01-23T14:35:44.225Z,63.50
2019-01-23T14:38:05.489Z,63.40
2019-01-23T14:40:27.697Z,63.90
2019-01-23T14:42:48.907Z,63.90
2019-01-23T14:47:47.294Z,64.00
2019-01-23T14:50:11.209Z,64.00
2019-01-23T14:52:32.409Z,64.10
2019-01-23T14:54:53.605Z,64.60
2019-01-23T14:57:14.811Z,65.10
2019-01-23T14:59:37.253Z,65.10
2019-01-23T15:01:58.598Z,65.10
2019-01-23T15:04:19.917Z,65.00
2019-01-23T15:06:41.118Z,65.00
2019-01-23T15:09:05.439Z,65.60
2019-01-23T15:11:26.616Z,65.90
2019-01-23T15:13:47.812Z,66.40
2019-01-23T15:16:09.005Z,66.60
2019-01-23T15:18:30.228Z,66.40
2019-01-23T15:20:51.513Z,66.10
2019-01-23T15:23:12.869Z,66.50
2019-01-23T15:25:34.071Z,67.10
2019-01-23T15:27:55.487Z,67.50
2019-01-23T15:30:20.521Z,67.80
2019-01-23T15:32:42.097Z,67.90
2019-01-23T15:35:06.015Z,67.50
2019-01-23T15:37:27.217Z,68.10
2019-01-23T15:39:49.302Z,67.30
2019-01-23T15:42:10.764Z,67.40
2019-01-23T15:44:31.974Z,67.60
2019-01-23T15:46:53.155Z,68.40
2019-01-23T15:49:14.361Z,68.50
2019-01-23T15:51:35.563Z,68.10
2019-01-23T15:53:56.764Z,68.10
2019-01-23T15:56:17.967Z,68.30
2019-01-23T15:58:39.176Z,68.10
2019-01-23T16:01:00.383Z,68.30
2019-01-23T16:03:21.605Z,68.30
2019-01-23T16:05:43.790Z,68.20
2019-01-23T16:08:04.977Z,68.20
2019-01-23T16:10:27.481Z,68.10
2019-01-23T16:12:48.692Z,68.40
2019-01-23T16:15:12.910Z,68.10
2019-01-23T16:17:34.103Z,68.10
2019-01-23T16:19:55.313Z,68.10
2019-01-23T16:22:16.766Z,67.70
2019-01-23T16:24:37.966Z,68.20
2019-01-23T16:26:59.350Z,68.30
2019-01-23T16:29:20.540Z,67.80
2019-01-23T16:31:43.196Z,67.90
2019-01-23T16:34:15.451Z,67.80
2019-01-23T16:36:45.310Z,68.70
2019-01-23T16:39:07.181Z,67.60
2019-01-23T16:41:28.727Z,67.80
2019-01-23T16:43:50.057Z,67.90
2019-01-23T16:46:11.267Z,68.30
2019-01-23T16:48:32.462Z,68.90
2019-01-23T16:50:53.725Z,68.80
2019-01-23T16:53:15.012Z,69.00
2019-01-23T16:55:36.373Z,68.70
2019-01-23T16:57:57.560Z,68.90
2019-01-23T17:00:20.873Z,69.00
2019-01-23T17:02:42.107Z,69.40
2019-01-23T17:05:07.103Z,69.30
2019-01-23T17:07:28.338Z,69.40
2019-01-23T17:09:49.549Z,69.50
2019-01-23T17:12:10.760Z,69.80
2019-01-23T17:14:31.974Z,69.90
2019-01-23T17:16:53.152Z,70.30
2019-01-23T17:19:15.711Z,70.00
2019-01-23T17:21:36.974Z,69.90
2019-01-23T17:23:58.177Z,70.30
2019-01-23T17:28:38.720Z,70.70
2019-01-23T17:30:59.915Z,70.70
2019-01-23T17:33:21.396Z,70.80
2019-01-23T17:35:42.662Z,70.80
2019-01-23T17:38:03.854Z,70.80
2019-01-23T17:40:25.073Z,71.00
2019-01-23T17:42:46.468Z,71.20
2019-01-23T17:45:11.086Z,71.20
2019-01-23T17:47:32.301Z,71.20
2019-01-23T17:49:53.579Z,71.00
2019-01-23T17:52:14.805Z,71.10
2019-01-23T17:54:36.005Z,71.40
2019-01-23T17:56:57.265Z,71.20
2019-01-23T17:59:18.750Z,71.20
2019-01-23T18:01:39.957Z,71.20
2019-01-23T18:04:01.171Z,71.20
2019-01-23T18:06:22.391Z,70.70
2019-01-23T18:08:43.791Z,70.90
2019-01-23T18:11:05.381Z,71.00
2019-01-23T18:13:26.552Z,71.20
2019-01-23T18:15:47.773Z,71.20
2019-01-23T18:18:10.965Z,71.10
2019-01-23T18:20:32.201Z,70.90
2019-01-23T18:22:53.440Z,70.90
2019-01-23T18:25:15.834Z,70.50
2019-01-23T18:27:37.096Z,70.50
2019-01-23T18:30:23.842Z,70.20
2019-01-23T18:32:46.170Z,69.80
2019-01-23T18:35:13.917Z,70.10
2019-01-23T18:37:38.961Z,69.90
2019-01-23T18:40:09.503Z,69.50
2019-01-23T18:42:34.532Z,69.80
2019-01-23T18:45:04.324Z,70.00
2019-01-23T18:47:35.618Z,70.10
2019-01-23T18:50:21.697Z,69.90
2019-01-23T18:52:42.908Z,69.80
2019-01-23T18:55:07.942Z,69.50
2019-01-23T18:57:31.348Z,69.80
2019-01-23T18:59:58.985Z,70.00
2019-01-23T19:02:16.089Z,70.30
2019-01-23T19:04:37.701Z,70.20
2019-01-23T19:06:59.140Z,70.00
2019-01-23T19:09:20.438Z,70.10
2019-01-23T19:11:41.733Z,69.90
2019-01-23T19:14:03.047Z,70.20
2019-01-23T19:16:24.405Z,69.90
2019-01-23T19:18:45.595Z,70.00
2019-01-23T19:21:06.825Z,70.00
2019-01-23T19:23:28.417Z,70.00
2019-01-23T19:25:51.157Z,70.10
2019-01-23T19:28:12.658Z,70.10
2019-01-23T19:30:33.910Z,70.20
2019-01-23T19:32:55.236Z,70.00
2019-01-23T19:35:16.453Z,69.70
2019-01-23T19:37:37.665Z,69.60
2019-01-23T19:39:58.888Z,69.90
2019-01-23T19:42:20.390Z,70.30
2019-01-23T19:44:42.905Z,70.60
2019-01-23T19:47:04.243Z,70.30
2019-01-23T19:49:25.591Z,70.50
2019-01-23T19:51:47.163Z,70.60
2019-01-23T19:54:11.347Z,70.60
2019-01-23T19:56:32.574Z,70.50
2019-01-23T19:58:53.808Z,70.30
2019-01-23T20:01:15.063Z,71.20
2019-01-23T20:03:36.293Z,70.30
2019-01-23T20:05:58.032Z,70.60
2019-01-23T20:08:19.259Z,70.60
2019-01-23T20:10:40.489Z,70.40
2019-01-23T20:13:01.709Z,70.70
2019-01-23T20:15:23.040Z,70.30
2019-01-23T20:17:44.263Z,70.10
2019-01-23T20:20:10.575Z,70.90
2019-01-23T20:22:31.910Z,70.00
2019-01-23T20:24:53.406Z,70.00
2019-01-23T20:27:14.731Z,69.90
2019-01-23T20:29:36.402Z,69.80
2019-01-23T20:31:57.876Z,70.20
2019-01-23T20:34:19.263Z,70.40
2019-01-23T20:36:40.657Z,70.30
2019-01-23T20:39:04.761Z,70.10
2019-01-23T20:41:27.584Z,70.20
2019-01-23T20:43:50.320Z,70.00
2019-01-23T20:46:11.662Z,70.20
2019-01-23T20:48:32.975Z,70.30
2019-01-23T20:50:54.209Z,70.60
2019-01-23T20:53:15.477Z,69.90
2019-01-23T20:55:37.008Z,70.40
2019-01-23T20:57:58.781Z,70.90
2019-01-23T21:00:30.830Z,70.30
2019-01-23T21:02:52.082Z,70.50
2019-01-23T21:05:13.320Z,70.40
2019-01-23T21:07:34.562Z,70.50
2019-01-23T21:09:55.881Z,70.60
2019-01-23T21:12:18.755Z,70.80
2019-01-23T21:14:40.346Z,70.70
2019-01-23T21:17:01.855Z,70.90
2019-01-23T21:19:23.139Z,70.90
2019-01-23T21:21:44.299Z,70.90
2019-01-23T21:24:05.548Z,70.80
2019-01-23T21:26:26.904Z,70.50
2019-01-23T21:28:48.097Z,70.90
2019-01-23T21:31:09.552Z,70.70
2019-01-23T21:33:30.749Z,70.50
2019-01-23T21:35:51.973Z,70.30
2019-01-23T21:38:13.173Z,70.40
2019-01-23T21:40:34.370Z,70.70
2019-01-23T21:42:56.770Z,71.10
2019-01-23T21:45:18.011Z,71.40
2019-01-23T21:47:39.192Z,71.20
2019-01-23T21:50:00.395Z,71.20
2019-01-23T21:52:21.585Z,71.40
2019-01-23T21:54:42.907Z,71.70
2019-01-23T21:57:04.097Z,72.10
2019-01-23T21:59:25.303Z,71.90
2019-01-23T22:01:46.573Z,71.90
2019-01-23T22:04:08.679Z,71.80
2019-01-23T22:06:30.027Z,71.80
2019-01-23T22:08:51.222Z,71.40
2019-01-23T22:11:12.427Z,71.50
2019-01-23T22:13:33.607Z,71.50
2019-01-23T22:15:54.807Z,71.70
2019-01-23T22:18:16.003Z,71.50
2019-01-23T22:20:37.250Z,71.20
2019-01-23T22:22:58.431Z,71.30
2019-01-23T22:25:22.153Z,71.50
2019-01-23T22:27:43.341Z,71.30
2019-01-23T22:30:14.132Z,71.20
2019-01-23T22:32:35.325Z,71.50
2019-01-23T22:34:56.516Z,71.40
2019-01-23T22:37:17.745Z,71.40
2019-01-23T22:39:38.945Z,71.50
2019-01-23T22:42:00.182Z,71.50
2019-01-23T22:44:21.364Z,71.70
2019-01-23T22:46:42.628Z,72.10
2019-01-23T22:49:03.819Z,71.70
2019-01-23T22:51:25.053Z,71.50
2019-01-23T22:54:06.122Z,71.20
2019-01-23T22:56:27.349Z,70.70
2019-01-23T22:58:48.536Z,70.50
2019-01-23T23:01:13.655Z,70.90
2019-01-23T23:03:34.843Z,71.00
2019-01-23T23:05:56.031Z,71.80
2019-01-23T23:08:17.223Z,72.00
2019-01-23T23:10:38.564Z,72.60
2019-01-23T23:12:59.748Z,73.40
2019-01-23T23:15:20.931Z,75.00
2019-01-23T23:17:42.135Z,75.30
2019-01-23T23:20:06.623Z,76.40
2019-01-23T23:22:27.926Z,78.50
2019-01-23T23:24:49.128Z,78.70
2019-01-23T23:27:11.433Z,80.30
2019-01-23T23:29:32.627Z,80.80
2019-01-23T23:31:55.053Z,80.90
2019-01-23T23:34:16.262Z,82.10
2019-01-23T23:36:37.716Z,82.30
2019-01-23T23:38:58.917Z,82.50
2019-01-23T23:41:20.218Z,82.20
2019-01-23T23:43:41.550Z,82.60
2019-01-23T23:46:02.770Z,82.70
2019-01-23T23:48:23.968Z,82.70
2019-01-23T23:50:45.182Z,82.80
2019-01-23T23:53:06.508Z,82.90
2019-01-23T23:55:27.710Z,82.80
2019-01-23T23:57:48.925Z,82.80
